Latest Weather Observations for Ballarat

IDV60801

Issued at 2:42 am EDT Tuesday 10 December 2019 (issued every 10 minutes, with the page automatically refreshed every 10 minutes)

About weather observations | Map of weather stations | Latest weather observations for VIC | Other Formats
Station Details ID: 089002 Name: BALLARAT AERODROME Lat: -37.51 Lon: 143.79 Height: 435.2 m
Data from the previous 72 hours. | See also: Recent months at Ballarat
Date/Time
EDT
Temp
°C
App
Temp
°C
Dew
Point
°C
Rel
Hum
%
Delta-T
°C
Wind Press
QNH
hPa
Press
MSL
hPa
Rain since
9am
mm
Dir  Spd
km/h
Gust
km/h
Spd
kts
Gust
kts
10/02:30am 12.1 7.8 12.1 100 0.0 S 26 37 14 20 1016.5 1015.5 0.0
10/02:00am 12.2 8.6 12.0 99 0.1 S 22 32 12 17 1016.4 1015.4 0.0
10/01:59am 12.2 8.6 12.0 99 0.1 S 22 32 12 17 1016.4 1015.4 0.0
10/01:44am 12.6 9.2 12.4 99 0.1 SSE 22 30 12 16 1016.5 1015.5 0.0
10/01:30am 12.6 8.8 12.4 99 0.1 SE 24 32 13 17 1016.2 1015.2 0.0
10/01:00am 12.3 8.5 12.3 100 0.0 SSE 24 32 13 17 1016.3 1015.3 0.0
10/12:30am 12.5 8.7 12.5 100 0.0 SSE 24 32 13 17 1017.1 1016.2 0.0
10/12:00am 12.5 9.5 12.5 100 0.0 S 20 30 11 16 1018.0 1017.1 0.0
 
Date/Time
EDT
Temp
°C
App
Temp
°C
Dew
Point
°C
Rel
Hum
%
Delta-T
°C
Wind Press
QNH
hPa
Press
MSL
hPa
Rain since
9am
mm
Dir  Spd
km/h
Gust
km/h
Spd
kts
Gust
kts
09/11:30pm 12.6 9.7 12.4 99 0.1 SSW 19 26 10 14 1017.9 1017.0 0.0
09/11:19pm 12.7 10.3 12.5 99 0.1 S 17 22 9 12 1017.5 1016.6 0.0
09/11:00pm 12.8 10.4 12.6 99 0.1 SSW 17 24 9 13 1017.5 1016.6 0.0
09/10:30pm 13.5 12.0 13.2 98 0.2 SW 13 19 7 10 1017.6 1016.7 0.0
09/10:00pm 13.9 11.2 12.8 93 0.6 S 19 26 10 14 1017.1 1016.2 0.0
09/09:30pm 14.5 11.8 11.8 84 1.5 SSW 17 28 9 15 1017.0 1016.1 0.0
09/09:00pm 16.2 13.2 12.4 78 2.1 SW 20 35 11 19 1017.0 1016.1 0.0
09/08:30pm 16.6 13.2 12.6 77 2.3 SW 22 37 12 20 1016.9 1015.9 0.0
09/08:00pm 18.1 15.4 11.7 66 3.6 SSW 17 22 9 12 1016.3 1015.3 0.0
09/07:30pm 20.9 17.3 9.8 49 6.1 SW 19 28 10 15 1015.4 1014.5 0.0
09/07:00pm 22.1 16.4 9.9 46 6.7 SSW 30 41 16 22 1014.8 1013.8 0.0
09/06:56pm 23.0 16.8 9.4 42 7.5 SSW 32 43 17 23 1014.6 1013.6 0.0
09/06:30pm 28.1 23.8 7.9 28 11.1 SW 20 32 11 17 1013.6 1012.6 0.0
09/06:00pm 29.2 24.9 5.3 22 12.7 SSW 17 26 9 14 1013.4 1012.4 0.0
09/05:30pm 29.3 25.2 7.8 26 11.9 SSW 19 28 10 15 1013.1 1012.2 0.0
09/05:00pm 29.3 23.3 7.2 25 12.1 SW 28 41 15 22 1013.0 1012.1 0.0
09/04:53pm 29.9 24.1 7.8 25 12.3 SW 28 41 15 22 1013.0 1012.1 0.0
09/04:39pm 32.0 24.2 3.1 16 15.0 WNW 33 56 18 30 1012.6 1011.6 0.0
09/04:38pm 32.4 24.5 2.5 15 15.4 WNW 33 56 18 30 1012.6 1011.6 0.0
09/04:37pm 33.3 25.4 1.2 13 16.3 WNW 32 56 17 30 1012.4 1011.4 0.0
09/04:30pm 34.2 27.1 -4.7 8 18.1 NW 24 35 13 19 1012.5 1011.5 0.0
09/04:00pm 33.9 26.5 -3.4 9 17.7 NNW 26 39 14 21 1012.8 1011.8 0.0
09/03:30pm 33.4 26.3 -1.0 11 16.9 NW 26 33 14 18 1013.4 1012.4 0.0
09/03:00pm 33.3 26.0 0.1 12 16.6 NW 28 37 15 20 1013.6 1012.6 0.0
09/02:30pm 33.0 25.0 -2.6 10 17.0 N 30 39 16 21 1013.5 1012.5 0.0
09/02:00pm 33.7 25.3 -0.8 11 17.0 N 33 48 18 26 1013.8 1012.8 0.0
09/01:30pm 33.8 24.7 1.6 13 16.5 N 39 54 21 29 1014.5 1013.5 0.0
09/01:21pm 33.3 25.5 -1.1 11 16.8 N 30 54 16 29 1014.6 1013.6 0.0
09/01:00pm 32.5 24.7 1.6 14 15.7 N 32 46 17 25 1015.0 1014.1 0.0
09/12:30pm 32.1 24.9 3.1 16 15.1 N 30 44 16 24 1015.1 1014.2 0.0
09/12:00pm 30.4 22.7 3.4 18 14.0 N 33 43 18 23 1015.5 1014.6 0.0
09/11:30am 29.2 21.8 4.0 20 13.1 N 32 46 17 25 1015.8 1014.8 0.0
09/11:00am 29.2 21.3 4.6 21 12.9 N 35 46 19 25 1016.1 1015.1 0.0
09/10:30am 27.7 20.4 4.7 23 12.0 N 32 41 17 22 1016.4 1015.4 0.0
09/10:00am 25.8 18.2 3.7 24 11.2 N 33 43 18 23 1016.4 1015.4 0.0
09/09:30am 24.7 17.2 3.4 25 10.6 N 32 48 17 26 1016.5 1015.5 0.0
09/09:00am 22.9 16.4 4.9 31 9.1 N 28 37 15 20 1016.6 1015.6 0.0
09/08:30am 22.5 16.5 5.4 33 8.7 N 26 32 14 17 1016.7 1015.7 0.0
09/08:00am 22.2 16.2 5.2 33 8.6 N 26 33 14 18 1016.1 1015.1 0.0
09/07:30am 21.1 15.3 4.2 33 8.4 N 24 33 13 18 1015.5 1014.6 0.0
09/07:00am 18.0 13.7 5.2 43 6.3 N 17 22 9 12 1015.2 1014.3 0.0
09/06:30am 19.1 13.9 3.3 35 7.6 NNE 20 26 11 14 1015.1 1014.2 0.0
09/06:00am 19.7 13.3 3.0 33 8.0 NNE 26 30 14 16 1014.4 1013.4 0.0
09/05:30am 19.5 13.1 3.2 34 7.8 NNE 26 30 14 16 1014.5 1013.5 0.0
09/05:00am 19.1 14.0 3.3 35 7.6 NNE 19 20 10 11 1014.5 1013.5 0.0
09/04:30am 17.8 13.2 3.7 39 6.7 NNE 17 20 9 11 1014.4 1013.4 0.0
09/04:00am 17.7 12.8 4.3 41 6.5 NNE 19 20 10 11 1014.6 1013.6 0.0
09/03:30am 17.1 12.4 5.1 45 5.9 NE 19 20 10 11 1015.1 1014.2 0.0
09/03:00am 14.4 12.2 6.3 58 4.0 NNE 7 11 4 6 1015.7 1014.7 0.0
09/02:30am 15.6 11.8 5.8 52 4.8 NNE 15 17 8 9 1016.0 1015.0 0.0
09/02:00am 16.4 14.5 6.5 52 5.0 NNW 6 9 3 5 1016.1 1015.1 0.0
09/01:30am 17.2 13.2 6.7 50 5.3 NE 17 19 9 10 1016.2 1015.2 0.0
09/01:00am 17.1 13.4 8.0 55 4.7 NE 17 19 9 10 1016.5 1015.5 0.0
09/12:30am 16.5 14.3 8.0 57 4.4 NNE 9 11 5 6 1016.9 1015.9 0.0
09/12:00am 16.2 13.6 7.7 57 4.4 NE 11 11 6 6 1017.3 1016.4 0.0
 
Date/Time
EDT
Temp
°C
App
Temp
°C
Dew
Point
°C
Rel
Hum
%
Delta-T
°C
Wind Press
QNH
hPa
Press
MSL
hPa
Rain since
9am
mm
Dir  Spd
km/h
Gust
km/h
Spd
kts
Gust
kts
08/11:30pm 17.1 14.5 9.3 60 4.2 NE 13 13 7 7 1017.3 1016.4 0.0
08/11:00pm 17.1 15.3 9.5 61 4.1 NE 9 11 5 6 1017.3 1016.4 0.0
08/10:30pm 16.7 15.8 10.8 68 3.2 ENE 6 9 3 5 1017.3 1016.4 0.0
08/10:00pm 17.8 16.0 10.7 63 3.9 E 11 13 6 7 1017.4 1016.5 0.0
08/09:30pm 19.2 17.1 11.0 59 4.6 E 13 17 7 9 1017.4 1016.5 0.0
08/09:00pm 20.8 18.0 11.2 54 5.4 ESE 17 19 9 10 1017.4 1016.5 0.0
08/08:30pm 23.0 20.5 4.5 30 9.3 NE 7 9 4 5 1017.1 1016.2 0.0
08/08:00pm 25.8 22.9 4.9 26 10.8 NNE 9 9 5 5 1017.0 1016.1 0.0
08/07:30pm 26.3 23.5 5.3 26 11.0 NNE 9 13 5 7 1016.8 1015.8 0.0
08/07:00pm 27.5 24.6 4.5 23 11.9 NNE 9 15 5 8 1016.5 1015.5 0.0
08/06:30pm 27.9 26.1 3.6 21 12.4 NW 2 7 1 4 1016.3 1015.3 0.0
08/06:00pm 28.3 25.4 4.6 22 12.4 NW 9 17 5 9 1016.3 1015.3 0.0
08/05:30pm 27.6 24.1 3.3 21 12.3 N 11 15 6 8 1016.5 1015.5 0.0
08/05:00pm 27.3 24.6 3.7 22 12.0 NNE 7 19 4 10 1016.7 1015.7 0.0
08/04:30pm 27.1 25.1 4.2 23 11.8 NNE 4 13 2 7 1017.0 1016.1 0.0
08/04:00pm 27.1 24.1 6.0 26 11.2 NE 11 15 6 8 1017.0 1016.1 0.0
08/03:30pm 26.0 23.3 3.9 24 11.2 SSW 7 13 4 7 1017.2 1016.3 0.0
08/03:00pm 26.3 24.5 3.5 23 11.5 SW 2 7 1 4 1017.2 1016.3 0.0
08/02:30pm 26.2 23.3 1.5 20 12.0 WNW 6 17 3 9 1017.5 1016.6 0.0
08/02:00pm 25.6 23.2 4.1 25 10.9 SW 6 9 3 5 1017.6 1016.7 0.0
08/01:30pm 24.8 23.1 1.7 22 11.2 CALM 0 6 0 3 1017.9 1017.0 0.0
08/01:00pm 24.6 21.6 2.1 23 10.9 W 7 17 4 9 1018.3 1017.3 0.0
08/12:30pm 24.1 20.5 2.9 25 10.5 NE 11 17 6 9 1018.5 1017.5 0.0
08/12:00pm 22.6 19.8 3.2 28 9.5 W 7 11 4 6 1018.6 1017.6 0.0
08/11:30am 22.9 22.0 7.8 38 8.1 NE 2 7 1 4 1018.8 1017.8 0.0
08/11:00am 20.9 17.8 3.6 32 8.4 ESE 9 17 5 9 1018.7 1017.7 0.0
08/10:30am 20.0 16.1 3.3 33 8.1 E 13 17 7 9 1018.7 1017.7 0.0
08/10:00am 18.5 14.8 6.4 45 6.1 SE 15 19 8 10 1018.7 1017.7 0.0
08/09:30am 17.2 13.8 7.5 53 5.0 SE 15 20 8 11 1018.8 1017.8 0.0
08/09:00am 15.2 11.7 8.9 66 3.3 SSE 17 20 9 11 1019.0 1018.0 0.0
08/08:30am 13.9 10.8 8.7 71 2.7 SSE 15 20 8 11 1018.9 1017.9 0.0
08/08:00am 12.1 8.3 9.1 82 1.5 SE 19 24 10 13 1018.6 1017.6 0.0
08/07:30am 10.6 6.9 9.5 93 0.6 SE 19 20 10 11 1018.7 1017.7 0.0
08/07:00am 9.5 6.9 9.4 99 0.1 SE 13 17 7 9 1018.3 1017.3 0.0
08/06:30am 8.0 5.5 8.0 100 0.0 SE 11 13 6 7 1017.8 1016.9 0.0
08/06:00am 7.7 4.7 7.7 100 0.0 SE 13 17 7 9 1017.7 1016.8 0.0
08/05:30am 8.0 3.9 8.0 100 0.0 SE 19 24 10 13 1017.6 1016.7 0.0
08/05:00am 7.9 4.2 7.9 100 0.0 SSE 17 22 9 12 1017.6 1016.7 0.0
08/04:30am 8.0 4.7 8.0 100 0.0 SE 15 24 8 13 1017.6 1016.7 0.0
08/04:00am 7.6 4.6 7.6 100 0.0 S 13 20 7 11 1017.8 1016.9 0.0
08/03:30am 7.8 4.8 7.8 100 0.0 SSE 13 15 7 8 1017.8 1016.9 0.0
08/03:28am 7.7 4.7 7.7 100 0.0 SSE 13 15 7 8 1017.8 1016.9 0.0
08/03:00am 8.3 5.4 8.3 100 0.0 SSE 13 17 7 9 1018.0 1017.1 0.0
08/02:30am 8.4 4.8 8.4 100 0.0 SSE 17 20 9 11 1018.4 1017.4 0.0
08/02:20am 8.2 4.6 8.2 100 0.0 S 17 20 9 11 1018.4 1017.4 0.0
08/02:00am 7.7 4.3 7.6 99 0.0 S 15 20 8 11 1018.4 1017.4 0.0
08/01:30am 7.8 4.0 7.7 99 0.0 S 17 20 9 11 1018.4 1017.4 0.0
08/01:00am 8.1 4.4 7.8 98 0.1 S 17 20 9 11 1018.6 1017.6 0.0
08/12:30am 8.6 4.6 8.3 98 0.1 S 19 22 10 12 1018.7 1017.7 0.0
08/12:00am 9.1 5.0 7.9 92 0.6 SSE 19 22 10 12 1019.0 1018.0 0.0
 
Date/Time
EDT
Temp
°C
App
Temp
°C
Dew
Point
°C
Rel
Hum
%
Delta-T
°C
Wind Press
QNH
hPa
Press
MSL
hPa
Rain since
9am
mm
Dir  Spd
km/h
Gust
km/h
Spd
kts
Gust
kts
07/11:30pm 9.9 6.5 7.5 85 1.2 S 15 19 8 10 1019.1 1018.2 0.0
07/11:00pm 10.9 6.5 7.6 80 1.6 S 20 26 11 14 1019.3 1018.4 0.0
07/10:30pm 11.5 8.1 7.6 77 1.9 S 15 19 8 10 1019.3 1018.4 0.0
07/10:00pm 11.7 8.3 7.6 76 2.0 SSE 15 19 8 10 1019.0 1018.0 0.0
07/09:30pm 12.4 9.3 7.3 71 2.5 S 13 17 7 9 1019.1 1018.2 0.0
07/09:00pm 13.5 9.6 7.3 66 3.1 S 17 20 9 11 1018.8 1017.8 0.0
07/08:30pm 14.6 10.4 7.4 62 3.6 S 19 24 10 13 1018.5 1017.5 0.0
07/08:00pm 15.9 11.6 7.7 58 4.2 S 20 28 11 15 1018.0 1017.1 0.0
07/07:30pm 17.3 13.1 7.4 52 5.1 S 19 26 10 14 1017.6 1016.7 0.0
07/07:00pm 18.1 14.3 7.5 50 5.5 SSW 17 24 9 13 1017.3 1016.4 0.0
07/06:30pm 18.7 15.0 7.8 49 5.7 SSW 17 24 9 13 1017.0 1016.1 0.0
07/06:00pm 18.9 14.5 7.4 47 6.0 SSW 20 28 11 15 1016.8 1015.8 0.0
07/05:30pm 19.5 15.3 8.2 48 6.0 SW 20 32 11 17 1016.7 1015.7 0.0
07/05:00pm 19.9 15.4 8.6 48 6.0 SSW 22 35 12 19 1016.8 1015.8 0.0
07/04:30pm 20.8 16.8 8.1 44 6.8 SW 19 32 10 17 1016.7 1015.7 0.0
07/04:00pm 21.0 16.6 6.5 39 7.5 SSW 19 30 10 16 1016.5 1015.5 0.0
07/03:30pm 20.8 16.4 6.7 40 7.3 SW 19 28 10 15 1016.5 1015.5 0.0
07/03:00pm 20.3 15.7 6.3 40 7.2 SW 20 28 11 15 1016.5 1015.5 0.0
07/02:30pm 20.6 16.4 5.8 38 7.5 SW 17 30 9 16 1016.4 1015.4 0.0
07/02:00pm 19.7 15.5 5.7 40 7.1 WSW 17 30 9 16 1016.3 1015.3 0.0
07/01:30pm 19.5 16.3 6.9 44 6.5 SW 13 22 7 12 1016.3 1015.3 0.0
07/01:00pm 18.9 15.7 5.0 40 6.9 SW 11 26 6 14 1016.3 1015.3 0.0
07/12:30pm 17.3 12.7 3.9 41 6.4 WSW 17 22 9 12 1016.5 1015.5 0.0
07/12:00pm 17.3 13.2 4.6 43 6.2 SW 15 22 8 12 1016.7 1015.7 0.0
07/11:30am 16.3 12.2 4.4 45 5.7 SW 15 26 8 14 1016.9 1015.9 0.0
07/11:00am 14.4 11.1 6.5 59 3.9 SW 13 22 7 12 1017.1 1016.2 0.0
07/10:30am 13.5 10.8 7.3 66 3.1 SSW 11 17 6 9 1017.2 1016.3 0.0
07/10:00am 12.2 8.3 6.9 70 2.6 SW 17 24 9 13 1017.3 1016.4 0.0
07/09:30am 11.3 7.0 7.0 75 2.1 SW 19 26 10 14 1017.5 1016.6 0.0
07/09:19am 11.0 6.8 7.3 78 1.8 SSW 19 30 10 16 1017.5 1016.6 0.0
07/09:00am 10.4 6.6 7.5 82 1.4 SSW 17 24 9 13 1017.4 1016.5 0.0
07/08:30am 9.4 5.0 7.3 87 1.0 SSW 20 28 11 15 1017.3 1016.4 0.0
07/08:00am 8.7 5.9 8.4 98 0.1 SSW 13 19 7 10 1017.2 1016.3 0.0
07/07:30am 7.7 5.1 7.6 99 0.0 SSW 11 17 6 9 1017.0 1016.1 0.0
07/07:00am 6.8 4.7 6.7 99 0.0 SSW 7 9 4 5 1016.5 1015.5 0.0
07/06:30am 6.2 4.2 6.2 100 0.0 S 6 9 3 5 1016.1 1015.1 0.0
07/06:21am 5.6 3.3 5.5 99 0.0 SSE 7 9 4 5 1016.2 1015.2 0.0
07/06:00am 5.6 3.4 5.5 99 0.0 S 6 7 3 4 1015.9 1014.9 0.0
07/05:59am 5.6 3.4 5.5 99 0.0 S 6 7 3 4 1015.9 1014.9 0.0
07/05:30am 6.0 3.9 5.9 99 0.0 S 6 11 3 6 1015.8 1014.8 0.0
07/05:25am 6.0 3.9 5.9 99 0.0 S 6 7 3 4 1015.7 1014.7 0.0
07/05:00am 6.0 3.7 5.9 99 0.0 SW 7 9 4 5 1015.4 1014.5 0.0
07/04:30am 6.1 3.9 6.0 99 0.0 SSW 7 11 4 6 1015.4 1014.5 0.0
07/04:00am 6.0 3.4 5.9 99 0.0 SW 9 11 5 6 1015.7 1014.7 0.0
07/03:30am 6.4 4.2 6.1 98 0.1 SW 7 11 4 6 1015.7 1014.7 0.0
07/03:00am 7.1 5.0 6.8 98 0.1 WSW 7 13 4 7 1015.7 1014.7 0.0

Other formats

Comma delimited format used in spreadsheet applications
http://www.bom.gov.au/fwo/IDV60801/IDV60801.94852.axf

JavaScript Object Notation format (JSON) in row-major order
http://www.bom.gov.au/fwo/IDV60801/IDV60801.94852.json

Data quality

Most of these data are generated automatically and are frequently updated. Quality checks on data are not normally performed. It is possible for incorrect values to appear. Refer to information at About Latest Weather Observations and please check the disclaimer before using these data.